Jefferson, Colorado
Current Conditions -  °F | °C
As of 12:37 AM on Thursday 23 Oct 2014 (Local Time) from KCCU Reporting Station
Clear Clear  
Wind Chill: 29°   Ceiling: Unl
Heat Index: 34°   Visibility: 10mi
Dew Point: 25°   Wind: 6mph
Humidity: 70%   Direction: 200°SSW
Pressure: 30.44"   Gusts: NA
Location:  39.38°N, 105.8°W
Report Text: KCCU 230637Z AUTO 20005KT 10SM CLR 01/M04 A3044 RMK AO2
Loading
Personal Weather Stations






























Interactive Weather Map
Tropical Storm Tracking
New forecast layout! Learn more

10-Day Weather Forecast

Advertisements
Track Severe Weather on mobile